Time;durP1;ratioP1;P1;durP2;ratioP2;P2;SDS_P1;SDS_P2;PMS_P1;PMS_P2;Temp;Humidity;BMP_temperature;BMP_pressure;BME280_temperature;BME280_humidity;BME280_pressure;Samples;Min_cycle;Max_cycle;Signal;HPM_P1;HPM_P2
2022/07/08 00:02:08;;;;;;;11.40;3.92;;;;;;;12.88;100.00;101420.44;4922892;29;20039;-79
2022/07/08 00:04:35;;;;;;;8.45;4.00;;;;;;;12.83;100.00;101419.63;4933006;29;20043;-79
2022/07/08 00:07:02;;;;;;;10.55;4.47;;;;;;;12.78;100.00;101429.44;4927455;29;20058;-79
2022/07/08 00:09:29;;;;;;;9.48;3.90;;;;;;;12.72;100.00;101426.91;4919484;29;20046;-80
2022/07/08 00:11:57;;;;;;;8.35;3.50;;;;;;;12.70;100.00;101428.72;4919172;29;20078;-79
2022/07/08 00:14:23;;;;;;;9.90;3.45;;;;;;;12.58;100.00;101419.16;4911367;29;20047;-80
2022/07/08 00:16:50;;;;;;;8.93;4.28;;;;;;;12.55;100.00;101421.00;4934030;29;20047;-79
2022/07/08 00:19:19;;;;;;;8.90;3.67;;;;;;;12.53;100.00;101426.34;4938097;29;20039;-79
2022/07/08 00:21:49;;;;;;;7.80;3.72;;;;;;;12.50;100.00;101422.84;4918029;28;20398;-80
2022/07/08 00:24:16;;;;;;;6.47;3.65;;;;;;;12.35;100.00;101422.16;4920363;29;20059;-79
2022/07/08 00:26:43;;;;;;;7.03;3.70;;;;;;;12.32;100.00;101424.00;4933151;29;20146;-79
2022/07/08 00:29:10;;;;;;;7.88;3.75;;;;;;;12.28;100.00;101430.28;4925424;28;20110;-79
2022/07/08 00:31:37;;;;;;;14.43;5.28;;;;;;;12.23;100.00;101434.75;4933645;29;20102;-79
2022/07/08 00:34:04;;;;;;;8.93;4.28;;;;;;;12.27;100.00;101425.84;4937859;29;20051;-80
2022/07/08 00:36:31;;;;;;;7.65;3.70;;;;;;;12.15;100.00;101432.22;4899395;29;20071;-79
2022/07/08 00:38:58;;;;;;;9.63;3.97;;;;;;;12.24;100.00;101429.41;4945935;29;20043;-79
2022/07/08 00:41:24;;;;;;;11.48;4.03;;;;;;;12.15;100.00;101428.69;4944457;29;20574;-79
2022/07/08 00:43:51;;;;;;;8.93;4.03;;;;;;;12.10;100.00;101434.91;4938811;29;20436;-78
2022/07/08 00:46:18;;;;;;;7.40;4.20;;;;;;;12.09;100.00;101429.63;4951926;29;20039;-78
2022/07/08 00:48:45;;;;;;;10.55;4.70;;;;;;;12.10;100.00;101429.63;4945352;29;20039;-79
2022/07/08 00:51:13;;;;;;;9.35;4.05;;;;;;;12.15;100.00;101442.81;4937175;29;20401;-79
2022/07/08 00:53:44;;;;;;;12.95;4.63;;;;;;;12.09;100.00;101448.19;4924446;29;20488;-79
2022/07/08 00:56:11;;;;;;;10.50;4.35;;;;;;;12.07;100.00;101444.69;4953416;29;20050;-79
2022/07/08 00:58:39;;;;;;;9.88;4.10;;;;;;;12.01;100.00;101444.75;4922880;29;20043;-78
2022/07/08 01:01:06;;;;;;;13.95;5.22;;;;;;;12.05;100.00;101446.50;4919303;29;20058;-80
2022/07/08 01:03:33;;;;;;;9.65;4.75;;;;;;;12.06;100.00;101441.16;5030785;23;20043;-80
2022/07/08 01:06:00;;;;;;;14.63;4.97;;;;;;;12.07;100.00;101444.69;4942230;28;20043;-81
2022/07/08 01:08:27;;;;;;;10.93;5.75;;;;;;;12.08;100.00;101449.09;4994755;28;20039;-83
2022/07/08 01:10:55;;;;;;;12.43;4.40;;;;;;;12.08;100.00;101455.25;4992857;28;20035;-84
2022/07/08 01:13:22;;;;;;;13.90;5.10;;;;;;;12.07;100.00;101453.50;4966288;28;20047;-84
2022/07/08 01:15:49;;;;;;;13.02;4.32;;;;;;;12.08;100.00;101455.25;4998186;28;20066;-84
2022/07/08 01:18:26;;;;;;;13.77;5.57;;;;;;;12.10;100.00;101457.88;4999537;28;20046;-83
2022/07/08 01:20:53;;;;;;;13.38;4.88;;;;;;;12.20;100.00;101456.00;4982225;28;20031;-81
2022/07/08 01:23:20;;;;;;;13.35;5.10;;;;;;;12.22;100.00;101449.78;5003904;28;20049;-83
2022/07/08 01:25:47;;;;;;;18.15;5.75;;;;;;;12.25;100.00;101457.66;4988244;28;20034;-84
2022/07/08 01:28:14;;;;;;;13.00;5.40;;;;;;;12.22;100.00;101452.41;4992552;28;20137;-81
2022/07/08 01:30:42;;;;;;;13.48;4.93;;;;;;;12.24;100.00;101461.22;4988155;28;20066;-83
2022/07/08 01:33:08;;;;;;;11.50;6.03;;;;;;;12.31;100.00;101454.94;5011451;28;20046;-83
2022/07/08 01:35:35;;;;;;;9.93;5.13;;;;;;;12.28;100.00;101460.28;4987260;28;20053;-82
2022/07/08 01:38:02;;;;;;;12.05;5.18;;;;;;;12.27;100.00;101460.28;4997783;28;20050;-83
2022/07/08 01:40:29;;;;;;;11.68;5.32;;;;;;;12.25;100.00;101454.13;4977984;28;20039;-82
2022/07/08 01:42:56;;;;;;;14.15;5.32;;;;;;;12.24;100.00;101461.22;4978476;29;20097;-83
2022/07/08 01:45:22;;;;;;;15.10;5.68;;;;;;;12.28;100.00;101460.28;4983890;28;20037;-84
2022/07/08 01:47:49;;;;;;;16.48;6.43;;;;;;;12.38;100.00;101468.97;4964146;28;20114;-84
2022/07/08 01:50:15;;;;;;;11.48;5.10;;;;;;;12.36;100.00;101473.44;4995535;28;20023;-81
2022/07/08 01:52:42;;;;;;;16.70;5.43;;;;;;;12.30;100.00;101474.38;4981592;28;20053;-82
2022/07/08 01:55:09;;;;;;;13.95;5.78;;;;;;;12.40;100.00;101473.34;4994543;28;20106;-81
2022/07/08 01:57:36;;;;;;;11.90;4.85;;;;;;;12.39;100.00;101476.03;4964618;28;20042;-81
2022/07/08 02:00:04;;;;;;;14.10;5.80;;;;;;;12.42;100.00;101481.25;4963428;28;20042;-81
2022/07/08 02:02:31;;;;;;;14.10;5.10;;;;;;;12.43;100.00;101479.47;4967944;28;20062;-82
2022/07/08 02:04:58;;;;;;;17.60;6.45;;;;;;;12.42;100.00;101475.09;4944316;29;20133;-83
2022/07/08 02:07:24;;;;;;;13.85;5.85;;;;;;;12.55;100.00;101468.72;4964006;28;20042;-83
2022/07/08 02:09:51;;;;;;;13.35;5.20;;;;;;;12.49;100.00;101474.97;4944277;28;20051;-83
2022/07/08 02:12:18;;;;;;;13.38;6.13;;;;;;;12.48;100.00;101478.53;4978126;28;20059;-83
2022/07/08 02:15:01;;;;;;;14.60;6.32;;;;;;;12.54;100.00;101478.44;4964282;28;20081;-85
2022/07/08 02:17:34;;;;;;;17.73;6.00;;;;;;;12.58;100.00;101485.44;4960162;28;20057;-81
2022/07/08 02:20:05;;;;;;;11.20;5.82;;;;;;;12.60;100.00;101480.09;4937337;28;20683;-82
2022/07/08 02:22:32;;;;;;;15.82;6.13;;;;;;;12.70;100.00;101481.72;4941126;28;20109;-84
2022/07/08 02:24:59;;;;;;;21.52;7.40;;;;;;;12.78;100.00;101487.78;4954808;28;20122;-82
2022/07/08 02:27:26;;;;;;;18.17;6.65;;;;;;;12.80;100.00;101485.09;4955975;28;20047;-83
2022/07/08 02:29:54;;;;;;;13.40;5.82;;;;;;;12.77;100.00;101483.34;4968439;28;20482;-83
2022/07/08 02:32:21;;;;;;;17.73;6.95;;;;;;;12.85;100.00;101483.22;4978317;28;20070;-84
2022/07/08 02:34:48;;;;;;;17.55;6.75;;;;;;;12.76;100.00;101494.88;4973019;28;20089;-83
2022/07/08 02:37:20;;;;;;;18.20;6.57;;;;;;;12.76;100.00;101494.00;4942856;28;20126;-83
2022/07/08 02:39:47;;;;;;;14.13;5.45;;;;;;;12.71;100.00;101487.91;4956782;28;20492;-85
2022/07/08 02:42:14;;;;;;;15.27;6.00;;;;;;;12.73;100.00;101494.94;4956045;28;20063;-83
2022/07/08 02:44:40;;;;;;;15.85;6.78;;;;;;;12.74;100.00;101499.31;4957671;28;20050;-83
2022/07/08 02:47:08;;;;;;;18.90;7.60;;;;;;;12.68;100.00;101507.38;4958272;28;20050;-85
2022/07/08 02:49:35;;;;;;;10.27;5.55;;;;;;;12.64;100.00;101503.91;4963107;28;20536;-86
2022/07/08 02:52:02;;;;;;;13.05;6.00;;;;;;;12.70;100.00;101508.25;4958644;28;20042;-83
2022/07/08 02:54:29;;;;;;;17.95;6.32;;;;;;;12.74;100.00;101509.06;4942909;28;20039;-83
2022/07/08 02:56:56;;;;;;;16.00;6.00;;;;;;;12.73;100.00;101513.47;4957961;28;20553;-82
2022/07/08 02:59:23;;;;;;;14.55;6.65;;;;;;;12.79;100.00;101517.81;4942172;28;20043;-82
2022/07/08 03:01:50;;;;;;;13.70;6.28;;;;;;;12.79;100.00;101505.44;4943645;28;20500;-85
2022/07/08 03:04:17;;;;;;;18.52;6.68;;;;;;;12.84;100.00;101514.19;4961252;28;20039;-83
2022/07/08 03:06:44;;;;;;;12.98;7.97;;;;;;;12.95;100.00;101522.84;4975329;28;20049;-85
2022/07/08 03:09:11;;;;;;;16.38;7.30;;;;;;;12.99;100.00;101517.50;4977927;28;20051;-83
2022/07/08 03:11:37;;;;;;;15.18;6.65;;;;;;;12.99;100.00;101518.38;4964964;28;20046;-83
2022/07/08 03:14:04;;;;;;;15.00;6.90;;;;;;;13.02;100.00;101518.31;4971109;28;20464;-84
2022/07/08 03:16:32;;;;;;;13.27;6.80;;;;;;;13.02;100.00;101528.91;4959664;28;20081;-82
2022/07/08 03:18:59;;;;;;;14.77;6.20;;;;;;;13.03;100.00;101525.38;4974843;28;20054;-83
2022/07/08 03:21:26;;;;;;;16.30;7.22;;;;;;;13.11;100.00;101520.78;4955114;28;20655;-83
2022/07/08 03:23:53;;;;;;;13.57;6.63;;;;;;;13.18;100.00;101532.19;4984273;28;20038;-83
2022/07/08 03:26:20;;;;;;;16.15;7.13;;;;;;;13.21;100.00;101540.16;4968587;28;20043;-82
2022/07/08 03:28:46;;;;;;;14.70;6.32;;;;;;;13.21;100.00;101543.66;4965100;28;20054;-83
2022/07/08 03:31:13;;;;;;;18.30;7.28;;;;;;;13.27;100.00;101547.09;4942694;28;20074;-82
2022/07/08 03:33:40;;;;;;;13.13;6.10;;;;;;;13.28;100.00;101544.41;4960379;28;20041;-83
2022/07/08 03:36:07;;;;;;;17.60;6.88;;;;;;;13.31;100.00;101555.00;4974872;28;20412;-82
2022/07/08 03:38:35;;;;;;;15.38;6.68;;;;;;;13.29;100.00;101559.47;4960904;28;20488;-82
2022/07/08 03:41:22;;;;;;;13.70;6.38;;;;;;;13.28;100.00;101554.16;4953763;28;20039;-82
2022/07/08 03:43:51;;;;;;;10.45;6.18;;;;;;;13.33;100.00;101557.63;4954678;28;20503;-81
2022/07/08 03:46:18;;;;;;;14.15;6.32;;;;;;;13.36;100.00;101558.44;4952076;28;20039;-82
2022/07/08 03:48:45;;;;;;;9.63;5.00;;;;;;;13.34;100.00;101557.59;4939093;28;20482;-82
2022/07/08 03:51:13;;;;;;;13.85;7.50;;;;;;;13.33;100.00;101565.59;4936536;28;20047;-81
2022/07/08 03:53:40;;;;;;;14.15;5.45;;;;;;;13.36;100.00;101574.34;4950599;28;20035;-82
2022/07/08 03:56:07;;;;;;;12.13;5.10;;;;;;;13.40;100.00;101573.41;4948440;28;20039;-82
2022/07/08 03:58:35;;;;;;;15.70;6.88;;;;;;;13.48;100.00;101573.28;4953888;28;20039;-81
2022/07/08 04:01:03;;;;;;;19.48;6.70;;;;;;;13.52;100.00;101585.56;4952661;28;20046;-81
2022/07/08 04:03:30;;;;;;;17.25;6.50;;;;;;;13.53;100.00;101585.53;4960074;28;20452;-82
2022/07/08 04:05:56;;;;;;;12.38;5.78;;;;;;;13.60;100.00;101586.31;4962502;28;20057;-82
2022/07/08 04:08:23;;;;;;;14.43;5.95;;;;;;;13.67;100.00;101589.75;4954396;28;20050;-82
2022/07/08 04:10:50;;;;;;;13.60;6.30;;;;;;;13.66;100.00;101588.88;4961115;28;20043;-82
2022/07/08 04:13:16;;;;;;;13.48;6.13;;;;;;;13.72;100.00;101594.06;4954687;29;20047;-82
2022/07/08 04:15:50;;;;;;;17.42;6.15;;;;;;;13.79;100.00;101585.09;4958367;28;20133;-81
2022/07/08 04:18:17;;;;;;;14.18;5.68;;;;;;;13.92;100.00;101591.03;4957732;28;20101;-82
2022/07/08 04:20:44;;;;;;;12.68;5.38;;;;;;;13.97;100.00;101602.47;4939599;28;20046;-82
2022/07/08 04:23:11;;;;;;;14.15;5.70;;;;;;;14.01;100.00;101606.78;4974177;28;20043;-81
2022/07/08 04:25:38;;;;;;;13.48;5.25;;;;;;;14.05;100.00;101613.81;4980142;28;20046;-82
2022/07/08 04:28:07;;;;;;;15.48;6.78;;;;;;;14.14;100.00;101611.88;4967259;28;20050;-82
2022/07/08 04:30:34;;;;;;;13.65;5.78;;;;;;;14.13;100.00;101618.97;4957785;28;20106;-82
2022/07/08 04:33:01;;;;;;;10.70;4.50;;;;;;;14.20;100.00;101625.03;4978691;28;20612;-81
2022/07/08 04:35:28;;;;;;;11.88;5.00;;;;;;;14.24;100.00;101627.59;4962102;28;20042;-82
2022/07/08 04:37:54;;;;;;;13.35;5.63;;;;;;;14.31;100.00;101637.22;4957173;28;20136;-81
2022/07/08 04:40:27;;;;;;;10.63;5.95;;;;;;;14.33;100.00;101635.38;4960680;28;20057;-81
2022/07/08 04:42:54;;;;;;;12.05;5.32;;;;;;;14.43;100.00;101636.06;4963181;28;20073;-81
2022/07/08 04:45:21;;;;;;;16.73;5.72;;;;;;;14.56;100.00;101642.06;4964231;28;20478;-82
2022/07/08 04:47:48;;;;;;;12.07;5.72;;;;;;;14.69;100.00;101637.31;4950057;28;20408;-82
2022/07/08 04:50:15;;;;;;;10.00;4.97;;;;;;;14.80;100.00;101635.31;4955540;28;20043;-82
2022/07/08 04:52:42;;;;;;;13.55;5.28;;;;;;;14.95;100.00;101636.75;4968913;28;20046;-82
2022/07/08 04:55:27;;;;;;;11.15;5.07;;;;;;;14.98;100.00;101631.38;4929683;28;20053;-81
2022/07/08 04:57:56;;;;;;;12.88;4.32;;;;;;;15.04;100.00;101631.19;4967698;28;20050;-81
2022/07/08 05:00:23;;;;;;;13.63;5.20;;;;;;;15.16;100.00;101630.94;4965355;28;20121;-82
2022/07/08 05:02:50;;;;;;;11.20;4.82;;;;;;;15.24;100.00;101636.94;4956087;28;20047;-81
2022/07/08 05:05:21;;;;;;;11.85;4.80;;;;;;;15.40;100.00;101633.00;4954993;28;20042;-80
2022/07/08 05:07:48;;;;;;;15.18;5.45;;;;;;;15.54;100.00;101634.41;4946868;28;20591;-82
2022/07/08 05:10:16;;;;;;;11.63;4.63;;;;;;;15.62;100.00;101638.66;4968273;28;20050;-81
2022/07/08 05:12:43;;;;;;;11.68;4.13;;;;;;;15.69;100.00;101645.59;4956589;28;20046;-81
2022/07/08 05:15:11;;;;;;;9.10;3.85;;;;;;;15.77;100.00;101643.59;4939706;28;20043;-82
2022/07/08 05:17:38;;;;;;;10.38;3.47;;;;;;;15.68;100.00;101648.31;4938347;28;20488;-81
2022/07/08 05:20:07;;;;;;;10.38;3.78;;;;;;;15.67;100.00;101649.22;4968247;28;20051;-80
2022/07/08 05:22:34;;;;;;;9.88;4.60;;;;;;;15.65;100.00;101646.59;4953740;28;20632;-81
2022/07/08 05:25:01;;;;;;;17.77;4.50;;;;;;;15.66;100.00;101642.16;4952878;28;20501;-82
2022/07/08 05:27:28;;;;;;;14.63;4.30;;;;;;;15.80;100.00;101644.44;4970539;28;20067;-82
2022/07/08 05:29:55;;;;;;;9.98;4.35;;;;;;;15.85;100.00;101655.84;4965502;28;20039;-81
2022/07/08 05:32:22;;;;;;;10.98;3.80;;;;;;;15.98;100.00;101658.16;4937194;28;20045;-82
2022/07/08 05:34:48;;;;;;;10.43;4.07;;;;;;;15.94;100.00;101664.47;4972563;28;20074;-81
2022/07/08 05:37:15;;;;;;;9.85;3.88;;;;;;;15.84;100.00;101662.09;4954830;28;20051;-81
2022/07/08 05:39:43;;;;;;;9.68;3.80;;;;;;;15.84;100.00;101678.09;4953496;28;20063;-82
2022/07/08 05:42:10;;;;;;;7.10;3.22;;;;;;;15.73;100.00;101673.91;4936724;29;20584;-81
2022/07/08 05:44:38;;;;;;;11.40;3.97;;;;;;;15.74;100.00;101691.66;4962348;28;20610;-82
2022/07/08 05:47:07;;;;;;;13.80;4.40;;;;;;;15.62;100.00;101685.75;4954439;28;20129;-82
2022/07/08 05:49:35;;;;;;;12.40;3.60;;;;;;;15.55;100.00;101697.44;4938163;28;20042;-80
2022/07/08 05:52:03;;;;;;;11.35;4.68;;;;;;;15.43;100.00;101695.94;4970420;28;20047;-80
2022/07/08 05:54:31;;;;;;;9.95;3.97;;;;;;;15.27;100.00;101697.22;4953965;28;20488;-80
2022/07/08 05:56:58;;;;;;;11.60;3.95;;;;;;;15.26;100.00;101692.81;4968885;28;20078;-80
2022/07/08 05:59:25;;;;;;;11.95;4.85;;;;;;;15.24;100.00;101707.94;4954855;28;20085;-80
2022/07/08 06:01:52;;;;;;;14.43;5.03;;;;;;;15.20;100.00;101717.78;4960218;28;20046;-81
2022/07/08 06:04:18;;;;;;;11.65;4.93;;;;;;;15.22;100.00;101710.66;4942584;28;1017789;-81
2022/07/08 06:06:45;;;;;;;11.02;4.85;;;;;;;15.23;100.00;101724.84;4970315;28;20090;-81
2022/07/08 06:09:12;;;;;;;11.82;4.15;;;;;;;15.15;100.00;101725.00;4954938;28;20042;-81
2022/07/08 06:11:38;;;;;;;13.80;3.78;;;;;;;15.20;100.00;101717.78;4954075;28;20480;-81
2022/07/08 06:14:05;;;;;;;13.85;4.32;;;;;;;15.16;100.00;101727.63;4955221;28;20050;-81
2022/07/08 06:16:32;;;;;;;13.35;4.25;;;;;;;15.15;100.00;101731.22;4966347;28;20131;-80
2022/07/08 06:18:59;;;;;;;8.43;3.88;;;;;;;15.18;100.00;101735.56;4971071;28;20068;-81
2022/07/08 06:21:25;;;;;;;9.77;4.47;;;;;;;15.25;100.00;101736.31;4953157;28;20035;-80
2022/07/08 06:23:53;;;;;;;11.93;4.88;;;;;;;15.22;100.00;101734.63;4952798;28;20046;-80
2022/07/08 06:26:19;;;;;;;12.63;4.38;;;;;;;15.39;100.00;101727.13;4952343;28;20079;-80
2022/07/08 06:28:46;;;;;;;16.95;5.28;;;;;;;15.55;100.00;101730.25;4970441;28;20420;-80
2022/07/08 06:31:13;;;;;;;11.00;4.07;;;;;;;15.67;100.00;101730.00;4966022;28;20069;-80
2022/07/08 06:33:40;;;;;;;8.77;3.83;;;;;;;15.73;100.00;101729.00;4967301;28;20492;-79
2022/07/08 06:36:14;;;;;;;17.58;3.80;;;;;;;15.66;100.00;101733.59;4953690;28;20051;-80
2022/07/08 06:38:41;;;;;;;9.00;3.63;;;;;;;15.73;100.00;101737.88;4955071;28;20058;-81
2022/07/08 06:41:07;;;;;;;12.10;4.53;;;;;;;15.89;100.00;101741.03;4948378;28;20044;-80
2022/07/08 06:43:34;;;;;;;10.63;4.10;;;;;;;15.88;100.00;101730.38;4975982;28;20035;-81
2022/07/08 06:46:00;;;;;;;8.80;3.15;;;;;;;16.11;100.00;101733.34;4935690;28;20042;-80
2022/07/08 06:48:27;;;;;;;7.63;3.78;;;;;;;16.29;100.00;101731.97;4969272;28;20063;-80
2022/07/08 06:50:55;;;;;;;12.05;4.28;;;;;;;16.33;100.00;101738.97;4959155;28;20043;-80
2022/07/08 06:53:21;;;;;;;8.07;3.85;;;;;;;16.29;100.00;101738.16;4979281;28;20136;-81
2022/07/08 06:55:48;;;;;;;9.25;3.65;;;;;;;16.11;100.00;101746.66;4972245;28;20069;-81
2022/07/08 06:58:16;;;;;;;8.40;3.30;;;;;;;16.00;100.00;101746.06;4956511;28;20046;-80
2022/07/08 07:00:43;;;;;;;12.13;3.97;;;;;;;15.95;100.00;101743.50;4956305;28;20049;-81
2022/07/08 07:03:09;;;;;;;12.07;3.72;;;;;;;15.84;100.00;101748.25;4975804;28;20133;-80
2022/07/08 07:05:36;;;;;;;11.27;3.50;;;;;;;15.75;100.00;101743.16;4975815;28;20046;-82
2022/07/08 07:08:06;;;;;;;11.02;3.65;;;;;;;15.77;100.00;101746.66;4968951;28;20628;-81
2022/07/08 07:10:32;;;;;;;6.22;3.45;;;;;;;15.69;100.00;101749.50;4963082;28;20464;-80
2022/07/08 07:12:59;;;;;;;7.82;3.38;;;;;;;15.64;100.00;101746.09;4954809;28;20102;-81
2022/07/08 07:15:26;;;;;;;8.10;2.78;;;;;;;15.55;100.00;101756.03;4985396;28;20043;-81
2022/07/08 07:17:53;;;;;;;4.05;2.88;;;;;;;15.52;100.00;101759.66;4986404;28;20046;-81
2022/07/08 07:20:23;;;;;;;5.80;3.47;;;;;;;15.64;100.00;101753.19;5061018;23;20097;31
2022/07/08 07:22:51;;;;;;;9.07;3.20;;;;;;;15.63;100.00;101760.28;4911862;29;20053;-81
2022/07/08 07:25:17;;;;;;;6.35;2.72;;;;;;;15.49;100.00;101773.91;4919614;29;20405;-80
2022/07/08 07:27:44;;;;;;;13.73;3.58;;;;;;;15.63;100.00;101775.41;4928920;28;20047;-81
2022/07/08 07:30:11;;;;;;;5.70;2.92;;;;;;;15.69;100.00;101769.94;4944713;29;20489;-80
2022/07/08 07:32:38;;;;;;;8.15;4.05;;;;;;;15.70;100.00;101771.69;4933152;29;20042;-81
2022/07/08 07:35:05;;;;;;;9.93;3.25;;;;;;;15.78;100.00;101761.72;4941754;28;20046;-79
2022/07/08 07:37:36;;;;;;;10.18;3.33;;;;;;;15.69;100.00;101765.47;4945341;28;20572;-79
2022/07/08 07:40:04;;;;;;;18.48;3.85;;;;;;;15.66;100.00;101759.34;4945536;29;20046;-80
2022/07/08 07:42:31;;;;;;;8.75;3.53;;;;;;;15.65;100.00;101774.47;4928222;29;20044;-80
2022/07/08 07:44:58;;;;;;;6.07;2.80;;;;;;;15.66;100.00;101773.56;4944010;28;20046;-79
2022/07/08 07:47:25;;;;;;;6.72;3.65;;;;;;;15.73;100.00;101779.63;4926109;28;20043;-81
2022/07/08 07:49:51;;;;;;;6.90;2.97;;;;;;;15.64;100.00;101767.41;4922790;28;20046;-78
2022/07/08 07:52:18;;;;;;;7.10;2.83;;;;;;;15.59;100.00;101771.91;4939737;28;20547;-77
2022/07/08 07:54:45;;;;;;;8.63;3.15;;;;;;;15.62;100.00;101779.84;4943760;28;20416;-79
2022/07/08 07:57:11;;;;;;;9.32;3.83;;;;;;;15.66;100.00;101786.88;4934798;29;20051;-78
2022/07/08 07:59:39;;;;;;;5.30;3.13;;;;;;;15.73;100.00;101783.16;4915777;29;20047;-79
2022/07/08 08:02:06;;;;;;;7.00;3.47;;;;;;;15.82;100.00;101786.50;4915493;29;20047;-80
2022/07/08 08:04:33;;;;;;;5.90;2.40;;;;;;;15.84;100.00;101790.88;4939508;28;20042;-80
2022/07/08 08:07:00;;;;;;;8.13;3.53;;;;;;;15.74;100.00;101800.91;4942816;29;20050;-79
2022/07/08 08:09:27;;;;;;;7.68;3.33;;;;;;;15.67;100.00;101796.63;4930688;28;20055;-79
2022/07/08 08:11:53;;;;;;;6.72;3.25;;;;;;;15.66;100.00;101802.84;4934493;29;20047;-80
2022/07/08 08:14:20;;;;;;;15.63;3.30;;;;;;;15.56;100.00;101808.41;4919678;28;20031;-78
2022/07/08 08:16:47;;;;;;;6.80;2.92;;;;;;;15.53;100.00;101812.00;4916540;29;20044;-78
2022/07/08 08:19:14;;;;;;;6.88;3.17;;;;;;;15.51;100.00;101813.81;4922614;28;20098;-80
2022/07/08 08:21:40;;;;;;;8.32;2.83;;;;;;;15.45;100.00;101808.63;4945974;28;20050;-80
2022/07/08 08:24:07;;;;;;;8.48;2.80;;;;;;;15.42;100.00;101820.25;4931730;29;20043;-78
2022/07/08 08:26:34;;;;;;;7.95;2.88;;;;;;;15.18;100.00;101818.09;4933410;29;20048;-79
2022/07/08 08:29:00;;;;;;;5.15;2.50;;;;;;;15.10;100.00;101834.22;4930714;29;20040;-80
2022/07/08 08:31:28;;;;;;;5.40;2.45;;;;;;;15.11;100.00;101837.75;4941081;29;20100;-79
2022/07/08 08:33:55;;;;;;;6.03;2.63;;;;;;;15.09;100.00;101839.59;4948293;29;20035;-80
2022/07/08 08:36:23;;;;;;;4.10;2.38;;;;;;;15.07;100.00;101830.75;4915464;29;20130;-78
2022/07/08 08:38:50;;;;;;;6.80;2.60;;;;;;;15.16;100.00;101835.91;4916594;29;20673;-79
2022/07/08 08:41:16;;;;;;;8.73;3.38;;;;;;;15.14;100.00;101845.72;4928627;29;20040;-79
2022/07/08 08:43:43;;;;;;;10.25;3.35;;;;;;;15.26;100.00;101855.22;4931891;29;20619;-79
2022/07/08 08:46:14;;;;;;;5.82;2.85;;;;;;;15.33;100.00;101836.41;4932688;29;20044;-79
2022/07/08 08:48:42;;;;;;;12.70;3.42;;;;;;;15.52;100.00;101839.53;4918212;29;20044;-80
2022/07/08 08:51:09;;;;;;;7.13;2.65;;;;;;;15.66;100.00;101844.59;4898722;29;20048;-80
2022/07/08 08:53:45;;;;;;;8.32;2.58;;;;;;;15.75;100.00;101853.25;4938321;28;20043;-79
2022/07/08 08:56:13;;;;;;;16.58;4.10;;;;;;;15.97;98.58;101847.41;4914142;29;20560;-78
2022/07/08 08:58:46;;;;;;;6.18;2.30;;;;;;;16.09;98.46;101854.25;4950006;28;20442;-79
2022/07/08 09:01:17;;;;;;;6.15;2.78;;;;;;;16.17;94.89;101847.81;4936360;29;20050;-80
2022/07/08 09:03:45;;;;;;;5.85;2.53;;;;;;;16.21;97.47;101848.63;4908837;29;20035;-79
2022/07/08 09:06:12;;;;;;;7.45;2.53;;;;;;;16.38;95.33;101854.41;4937215;29;20494;-79
2022/07/08 09:08:39;;;;;;;7.43;2.47;;;;;;;16.40;92.98;101854.38;4915379;29;20039;-79
2022/07/08 09:11:07;;;;;;;5.20;2.22;;;;;;;16.43;90.21;101855.16;4934143;29;20102;-80
2022/07/08 09:13:34;;;;;;;5.80;2.25;;;;;;;16.42;92.33;101863.22;4948166;28;20137;-80
2022/07/08 09:16:07;;;;;;;5.60;2.22;;;;;;;16.41;90.69;101856.13;4935983;29;20043;-80
2022/07/08 09:18:35;;;;;;;4.00;2.05;;;;;;;16.32;89.06;101857.25;4950743;28;20055;-80
2022/07/08 09:21:02;;;;;;;7.07;2.33;;;;;;;16.14;86.18;101863.00;4932044;29;20044;-80
2022/07/08 09:23:33;;;;;;;4.32;2.50;;;;;;;16.01;87.96;101857.97;4934432;29;20497;-79
2022/07/08 09:26:05;;;;;;;4.82;2.25;;;;;;;15.85;90.33;101848.59;4914394;29;20036;-79
2022/07/08 09:28:40;;;;;;;7.60;2.45;;;;;;;16.00;90.70;101850.03;4918483;29;20039;-80
2022/07/08 09:31:10;;;;;;;9.82;3.08;;;;;;;16.19;93.26;101855.78;4932331;29;20051;-81
2022/07/08 09:33:37;;;;;;;6.18;2.40;;;;;;;16.26;91.49;101868.06;4956882;28;20043;-80
2022/07/08 09:36:05;;;;;;;7.32;3.10;;;;;;;16.13;89.81;101863.91;4940139;29;20061;-80
2022/07/08 09:38:36;;;;;;;5.60;2.53;;;;;;;16.17;89.62;101877.16;4958664;28;20058;-79
2022/07/08 09:41:09;;;;;;;6.78;2.42;;;;;;;16.10;88.04;101864.00;4921125;29;20139;-78
2022/07/08 09:43:48;;;;;;;8.23;3.28;;;;;;;16.21;89.84;101860.16;4944905;29;20055;-78
2022/07/08 09:46:15;;;;;;;4.35;2.15;;;;;;;16.25;87.54;101845.84;4953155;29;20040;-79
2022/07/08 09:48:42;;;;;;;10.02;2.67;;;;;;;16.32;87.77;101846.56;4952546;28;20043;-78
2022/07/08 09:51:08;;;;;;;7.10;2.85;;;;;;;16.87;88.46;101835.31;4934795;29;20044;-79
2022/07/08 09:53:37;;;;;;;4.63;2.03;;;;;;;17.58;83.67;101834.16;4927221;29;20060;-79
2022/07/08 09:56:04;;;;;;;6.38;2.83;;;;;;;18.09;79.08;101830.75;4937072;29;20126;-79
2022/07/08 09:58:32;;;;;;;6.65;2.47;;;;;;;18.26;77.63;101832.88;4938765;29;20040;-78
2022/07/08 10:01:00;;;;;;;7.38;2.92;;;;;;;18.52;77.08;101829.31;4940236;29;20551;-79
2022/07/08 10:03:28;;;;;;;5.00;2.22;;;;;;;18.78;74.30;101831.09;4924243;29;20704;-78
2022/07/08 10:05:56;;;;;;;8.77;1.70;;;;;;;18.91;73.82;101821.66;4919261;29;20512;-80
2022/07/08 10:08:23;;;;;;;6.80;2.35;;;;;;;19.36;74.90;101818.19;4904116;29;20040;-80
2022/07/08 10:10:50;;;;;;;6.25;1.98;;;;;;;19.64;70.63;101818.88;4946328;29;20043;-78
2022/07/08 10:13:19;;;;;;;5.47;2.38;;;;;;;19.97;67.13;101826.50;4971374;28;20043;-80
2022/07/08 10:15:48;;;;;;;6.35;2.35;;;;;;;20.02;64.96;101823.66;4919409;29;20151;-80
2022/07/08 10:18:17;;;;;;;4.15;2.00;;;;;;;19.78;65.99;101833.56;4944384;29;20073;-79
2022/07/08 10:20:47;;;;;;;3.83;1.85;;;;;;;19.65;67.46;101834.03;4938905;29;20046;-81
2022/07/08 10:23:23;;;;;;;9.05;2.90;;;;;;;19.44;67.52;101845.59;4911399;29;20048;-81
2022/07/08 10:25:50;;;;;;;4.55;2.28;;;;;;;19.33;68.55;101840.63;4909590;29;20432;-79
2022/07/08 10:28:17;;;;;;;4.32;2.15;;;;;;;19.31;69.06;101831.75;4901232;29;20059;-80
2022/07/08 10:30:46;;;;;;;4.35;2.53;;;;;;;19.32;66.63;101827.28;4904291;29;20142;-80
2022/07/08 10:33:18;;;;;;;4.70;2.00;;;;;;;19.43;69.00;101832.25;4906847;29;20056;-79
2022/07/08 10:36:03;;;;;;;6.65;2.45;;;;;;;19.24;68.09;101830.25;4902899;29;20043;-79
2022/07/08 10:38:40;;;;;;;5.90;2.20;;;;;;;19.61;69.37;101834.25;4934554;29;20517;-79
2022/07/08 10:41:11;;;;;;;4.20;1.80;;;;;;;19.35;62.00;101835.22;4953776;29;20428;-78
2022/07/08 10:43:52;;;;;;;5.20;2.58;;;;;;;19.51;65.33;101839.06;4931349;29;20536;-79
2022/07/08 10:46:20;;;;;;;6.60;1.88;;;;;;;19.70;64.92;101838.38;4898358;29;20115;-80
2022/07/08 10:48:49;;;;;;;3.92;2.00;;;;;;;19.72;61.38;101831.13;4899990;29;20091;-78
2022/07/08 10:51:24;;;;;;;5.63;2.17;;;;;;;19.94;67.58;101834.69;4926122;29;20103;-79
2022/07/08 10:54:08;;;;;;;6.47;1.90;;;;;;;20.46;66.65;101848.66;4917810;29;20048;-79
2022/07/08 10:56:48;;;;;;;5.00;2.38;;;;;;;20.57;59.51;101827.56;4886280;29;20071;-80
2022/07/08 10:59:18;;;;;;;3.80;1.70;;;;;;;20.56;57.92;101825.81;4918295;29;20040;-79
2022/07/08 11:02:06;;;;;;;4.75;1.70;;;;;;;20.93;64.23;101829.56;4916690;29;20044;-80
2022/07/08 11:04:36;;;;;;;6.25;2.28;;;;;;;21.19;57.33;101837.31;4907514;29;20420;-79
2022/07/08 11:07:15;;;;;;;4.93;1.70;;;;;;;21.53;57.42;101831.28;4929549;29;20044;-79
2022/07/08 11:09:43;;;;;;;5.68;2.30;;;;;;;21.54;56.08;101822.25;4915906;29;20043;-79
2022/07/08 11:12:14;;;;;;;7.53;1.65;;;;;;;21.34;55.81;101830.38;4917740;29;20043;-79
2022/07/08 11:14:43;;;;;;;4.15;2.10;;;;;;;20.83;55.95;101826.41;4900093;29;20044;-79
2022/07/08 11:17:23;;;;;;;6.55;2.03;;;;;;;20.62;57.07;101838.13;4918053;29;20051;-79
2022/07/08 11:19:51;;;;;;;5.20;1.67;;;;;;;20.45;56.77;101838.84;4896754;29;20458;-79